Airport View

Enter AWOS ICAO identifier for current METAR.

ex. KFNL

KUVA 261239Z AUTO 08004KT 10SM OVC012 22/22 A3006 RMK AO2 LTG DSNT NE

26 Jun 2019 12:59

Frequency: 124.175

Phone: 830-278-8862

Other Area AWOS: KHDO - KDLF - KCZT - KCVB

TAF KDLF 261100Z 2611/2717 13009KT 9999 FEW009 OVC015 QNH3001INS BECMG 2613/2614 13010KT 8000 -DZ BR BKN007 OVC012 QNH3002INS TEMPO 2616/2618 VCSH SCT007 BKN015 BECMG 2617/2618 15010G15KT 9999 NSW FEW020 BKN030 QNH2998INS BECMG 2620/2621 16018G23KT 9999 SCT050 BKN100 QNH2997INS BECMG 2702/2703 12012KT 9999 BKN040 QNH3003INS BECMG 2708/2709 10010KT 8000 BR VCSH OVC015 QNH3007INS TX33/2620Z TN20/2612Z